sensor_id;sensor_type;location;lat;lon;timestamp;P1;durP1;ratioP1;P2;durP2;ratioP2
53545;SDS011;39432;51.902;10.844;2023-04-25T00:01:46;5.63;;;2.22;;
53545;SDS011;39432;51.902;10.844;2023-04-25T00:04:17;7.50;;;2.13;;
53545;SDS011;39432;51.902;10.844;2023-04-25T00:06:51;7.82;;;2.83;;
53545;SDS011;39432;51.902;10.844;2023-04-25T00:09:21;8.75;;;2.50;;
53545;SDS011;39432;51.902;10.844;2023-04-25T00:11:51;10.52;;;3.03;;
53545;SDS011;39432;51.902;10.844;2023-04-25T00:14:21;6.57;;;2.65;;
53545;SDS011;39432;51.902;10.844;2023-04-25T00:16:51;6.30;;;2.40;;
53545;SDS011;39432;51.902;10.844;2023-04-25T00:19:21;6.22;;;2.33;;
53545;SDS011;39432;51.902;10.844;2023-04-25T00:21:55;5.80;;;2.35;;
53545;SDS011;39432;51.902;10.844;2023-04-25T00:24:25;6.20;;;2.00;;
53545;SDS011;39432;51.902;10.844;2023-04-25T00:26:55;5.32;;;2.20;;
53545;SDS011;39432;51.902;10.844;2023-04-25T00:29:25;6.03;;;2.15;;
53545;SDS011;39432;51.902;10.844;2023-04-25T00:31:55;6.35;;;2.33;;
53545;SDS011;39432;51.902;10.844;2023-04-25T00:34:25;6.80;;;2.30;;
53545;SDS011;39432;51.902;10.844;2023-04-25T00:36:57;5.47;;;1.92;;
53545;SDS011;39432;51.902;10.844;2023-04-25T00:39:28;7.88;;;2.65;;
53545;SDS011;39432;51.902;10.844;2023-04-25T00:41:58;6.25;;;2.33;;
53545;SDS011;39432;51.902;10.844;2023-04-25T00:44:29;4.88;;;2.00;;
53545;SDS011;39432;51.902;10.844;2023-04-25T00:47:00;7.70;;;2.40;;
53545;SDS011;39432;51.902;10.844;2023-04-25T00:49:32;8.57;;;2.03;;
53545;SDS011;39432;51.902;10.844;2023-04-25T00:52:04;11.13;;;2.30;;
53545;SDS011;39432;51.902;10.844;2023-04-25T00:54:36;6.30;;;2.20;;
53545;SDS011;39432;51.902;10.844;2023-04-25T00:57:07;6.65;;;2.38;;
53545;SDS011;39432;51.902;10.844;2023-04-25T00:59:37;9.02;;;2.95;;
53545;SDS011;39432;51.902;10.844;2023-04-25T01:02:07;6.47;;;2.30;;
53545;SDS011;39432;51.902;10.844;2023-04-25T01:04:38;7.03;;;3.08;;
53545;SDS011;39432;51.902;10.844;2023-04-25T01:07:11;7.75;;;2.63;;
53545;SDS011;39432;51.902;10.844;2023-04-25T01:09:41;11.20;;;3.00;;
53545;SDS011;39432;51.902;10.844;2023-04-25T01:12:11;9.18;;;2.53;;
53545;SDS011;39432;51.902;10.844;2023-04-25T01:14:41;8.02;;;2.90;;
53545;SDS011;39432;51.902;10.844;2023-04-25T01:17:11;6.65;;;2.50;;
53545;SDS011;39432;51.902;10.844;2023-04-25T01:19:42;8.10;;;2.50;;
53545;SDS011;39432;51.902;10.844;2023-04-25T01:22:15;7.13;;;2.53;;
53545;SDS011;39432;51.902;10.844;2023-04-25T01:24:45;8.52;;;2.72;;
53545;SDS011;39432;51.902;10.844;2023-04-25T01:27:16;7.43;;;2.28;;
53545;SDS011;39432;51.902;10.844;2023-04-25T01:29:47;7.15;;;2.40;;
53545;SDS011;39432;51.902;10.844;2023-04-25T01:32:18;9.23;;;2.40;;
53545;SDS011;39432;51.902;10.844;2023-04-25T01:34:48;5.88;;;2.50;;
53545;SDS011;39432;51.902;10.844;2023-04-25T01:37:21;5.18;;;2.60;;
53545;SDS011;39432;51.902;10.844;2023-04-25T01:39:51;8.73;;;2.50;;
53545;SDS011;39432;51.902;10.844;2023-04-25T01:42:21;8.02;;;2.95;;
53545;SDS011;39432;51.902;10.844;2023-04-25T01:44:51;8.50;;;2.50;;
53545;SDS011;39432;51.902;10.844;2023-04-25T01:47:21;8.32;;;2.40;;
53545;SDS011;39432;51.902;10.844;2023-04-25T01:49:51;8.38;;;2.30;;
53545;SDS011;39432;51.902;10.844;2023-04-25T01:52:24;7.30;;;2.35;;
53545;SDS011;39432;51.902;10.844;2023-04-25T01:54:54;6.45;;;2.42;;
53545;SDS011;39432;51.902;10.844;2023-04-25T01:57:27;5.47;;;2.25;;
53545;SDS011;39432;51.902;10.844;2023-04-25T01:59:58;10.77;;;3.20;;
53545;SDS011;39432;51.902;10.844;2023-04-25T02:02:38;7.22;;;2.95;;
53545;SDS011;39432;51.902;10.844;2023-04-25T02:05:21;8.13;;;3.17;;
53545;SDS011;39432;51.902;10.844;2023-04-25T02:07:53;7.43;;;2.83;;
53545;SDS011;39432;51.902;10.844;2023-04-25T02:10:25;8.27;;;2.63;;
53545;SDS011;39432;51.902;10.844;2023-04-25T02:13:06;8.07;;;2.47;;
53545;SDS011;39432;51.902;10.844;2023-04-25T02:15:55;7.65;;;2.65;;
53545;SDS011;39432;51.902;10.844;2023-04-25T02:18:25;7.20;;;2.58;;
53545;SDS011;39432;51.902;10.844;2023-04-25T02:20:55;9.75;;;2.83;;
53545;SDS011;39432;51.902;10.844;2023-04-25T02:23:27;9.57;;;3.00;;
53545;SDS011;39432;51.902;10.844;2023-04-25T02:25:59;9.43;;;2.85;;
53545;SDS011;39432;51.902;10.844;2023-04-25T02:28:29;8.10;;;2.70;;
53545;SDS011;39432;51.902;10.844;2023-04-25T02:31:03;6.95;;;2.72;;
53545;SDS011;39432;51.902;10.844;2023-04-25T02:33:33;9.23;;;2.92;;
53545;SDS011;39432;51.902;10.844;2023-04-25T02:36:05;8.57;;;2.88;;
53545;SDS011;39432;51.902;10.844;2023-04-25T02:38:38;9.73;;;3.10;;
53545;SDS011;39432;51.902;10.844;2023-04-25T02:41:07;8.15;;;2.85;;
53545;SDS011;39432;51.902;10.844;2023-04-25T02:43:37;11.55;;;3.65;;
53545;SDS011;39432;51.902;10.844;2023-04-25T02:46:07;12.90;;;2.85;;
53545;SDS011;39432;51.902;10.844;2023-04-25T02:48:38;8.43;;;2.83;;
53545;SDS011;39432;51.902;10.844;2023-04-25T02:51:08;7.80;;;2.50;;
53545;SDS011;39432;51.902;10.844;2023-04-25T02:53:40;12.10;;;2.97;;
53545;SDS011;39432;51.902;10.844;2023-04-25T02:56:10;11.95;;;3.38;;
53545;SDS011;39432;51.902;10.844;2023-04-25T02:58:40;8.57;;;2.85;;
53545;SDS011;39432;51.902;10.844;2023-04-25T03:01:10;7.03;;;2.90;;
53545;SDS011;39432;51.902;10.844;2023-04-25T03:03:40;9.40;;;3.75;;
53545;SDS011;39432;51.902;10.844;2023-04-25T03:06:10;10.30;;;3.17;;
53545;SDS011;39432;51.902;10.844;2023-04-25T03:08:42;8.63;;;3.28;;
53545;SDS011;39432;51.902;10.844;2023-04-25T03:11:12;7.28;;;2.80;;
53545;SDS011;39432;51.902;10.844;2023-04-25T03:13:42;7.35;;;2.63;;
53545;SDS011;39432;51.902;10.844;2023-04-25T03:16:13;5.40;;;2.60;;
53545;SDS011;39432;51.902;10.844;2023-04-25T03:18:42;5.38;;;2.80;;
53545;SDS011;39432;51.902;10.844;2023-04-25T03:21:12;6.10;;;2.80;;
53545;SDS011;39432;51.902;10.844;2023-04-25T03:23:45;5.28;;;2.95;;
53545;SDS011;39432;51.902;10.844;2023-04-25T03:26:15;9.38;;;3.08;;
53545;SDS011;39432;51.902;10.844;2023-04-25T03:28:44;7.13;;;2.47;;
53545;SDS011;39432;51.902;10.844;2023-04-25T03:31:14;7.47;;;2.80;;
53545;SDS011;39432;51.902;10.844;2023-04-25T03:33:44;10.23;;;2.95;;
53545;SDS011;39432;51.902;10.844;2023-04-25T03:36:15;6.30;;;2.38;;
53545;SDS011;39432;51.902;10.844;2023-04-25T03:38:48;7.40;;;3.20;;
53545;SDS011;39432;51.902;10.844;2023-04-25T03:41:20;11.18;;;2.75;;
53545;SDS011;39432;51.902;10.844;2023-04-25T03:43:53;4.75;;;2.35;;
53545;SDS011;39432;51.902;10.844;2023-04-25T03:46:23;5.38;;;2.22;;
53545;SDS011;39432;51.902;10.844;2023-04-25T03:48:53;8.93;;;2.63;;
53545;SDS011;39432;51.902;10.844;2023-04-25T03:51:30;6.80;;;2.50;;
53545;SDS011;39432;51.902;10.844;2023-04-25T03:54:03;6.97;;;2.78;;
53545;SDS011;39432;51.902;10.844;2023-04-25T03:56:39;6.60;;;2.80;;
53545;SDS011;39432;51.902;10.844;2023-04-25T03:59:17;8.27;;;2.92;;
53545;SDS011;39432;51.902;10.844;2023-04-25T04:01:47;8.63;;;3.60;;
53545;SDS011;39432;51.902;10.844;2023-04-25T04:04:17;9.00;;;3.33;;
53545;SDS011;39432;51.902;10.844;2023-04-25T04:06:47;6.57;;;3.08;;
53545;SDS011;39432;51.902;10.844;2023-04-25T04:09:25;8.50;;;3.65;;
53545;SDS011;39432;51.902;10.844;2023-04-25T04:11:57;7.10;;;3.45;;
53545;SDS011;39432;51.902;10.844;2023-04-25T04:14:29;6.57;;;2.83;;
53545;SDS011;39432;51.902;10.844;2023-04-25T04:16:59;9.98;;;3.30;;
53545;SDS011;39432;51.902;10.844;2023-04-25T04:19:29;9.35;;;3.35;;
53545;SDS011;39432;51.902;10.844;2023-04-25T04:22:07;8.57;;;3.28;;
53545;SDS011;39432;51.902;10.844;2023-04-25T04:24:40;6.28;;;3.45;;
53545;SDS011;39432;51.902;10.844;2023-04-25T04:27:18;6.53;;;3.47;;
53545;SDS011;39432;51.902;10.844;2023-04-25T04:29:59;11.88;;;4.28;;
53545;SDS011;39432;51.902;10.844;2023-04-25T04:32:33;10.63;;;3.92;;
53545;SDS011;39432;51.902;10.844;2023-04-25T04:35:05;6.70;;;3.45;;
53545;SDS011;39432;51.902;10.844;2023-04-25T04:37:38;7.80;;;3.60;;
53545;SDS011;39432;51.902;10.844;2023-04-25T04:40:13;6.25;;;3.60;;
53545;SDS011;39432;51.902;10.844;2023-04-25T04:42:51;9.27;;;4.07;;
53545;SDS011;39432;51.902;10.844;2023-04-25T04:45:50;9.07;;;3.92;;
53545;SDS011;39432;51.902;10.844;2023-04-25T04:48:41;8.02;;;4.38;;
53545;SDS011;39432;51.902;10.844;2023-04-25T04:51:34;8.52;;;4.22;;
53545;SDS011;39432;51.902;10.844;2023-04-25T04:54:15;9.23;;;4.97;;
53545;SDS011;39432;51.902;10.844;2023-04-25T04:57:13;7.22;;;3.85;;
53545;SDS011;39432;51.902;10.844;2023-04-25T05:00:04;6.55;;;3.10;;
53545;SDS011;39432;51.902;10.844;2023-04-25T05:03:03;6.38;;;3.47;;
53545;SDS011;39432;51.902;10.844;2023-04-25T05:05:52;9.82;;;4.20;;
53545;SDS011;39432;51.902;10.844;2023-04-25T05:08:31;8.90;;;3.55;;
53545;SDS011;39432;51.902;10.844;2023-04-25T05:11:33;10.52;;;3.53;;
53545;SDS011;39432;51.902;10.844;2023-04-25T05:14:15;9.82;;;3.75;;
53545;SDS011;39432;51.902;10.844;2023-04-25T05:17:07;9.43;;;3.28;;
53545;SDS011;39432;51.902;10.844;2023-04-25T05:19:56;10.20;;;3.90;;
53545;SDS011;39432;51.902;10.844;2023-04-25T05:22:58;14.82;;;3.63;;
53545;SDS011;39432;51.902;10.844;2023-04-25T05:25:40;10.60;;;3.10;;
53545;SDS011;39432;51.902;10.844;2023-04-25T05:28:23;11.48;;;3.30;;
53545;SDS011;39432;51.902;10.844;2023-04-25T05:31:14;11.85;;;3.40;;
53545;SDS011;39432;51.902;10.844;2023-04-25T05:33:55;17.52;;;3.72;;
53545;SDS011;39432;51.902;10.844;2023-04-25T05:36:35;15.63;;;3.20;;
53545;SDS011;39432;51.902;10.844;2023-04-25T05:39:04;24.30;;;3.53;;
53545;SDS011;39432;51.902;10.844;2023-04-25T05:41:54;20.25;;;3.58;;
53545;SDS011;39432;51.902;10.844;2023-04-25T05:44:52;10.60;;;3.75;;
53545;SDS011;39432;51.902;10.844;2023-04-25T05:47:33;15.93;;;4.35;;
53545;SDS011;39432;51.902;10.844;2023-04-25T05:50:11;14.98;;;4.10;;
53545;SDS011;39432;51.902;10.844;2023-04-25T05:52:59;17.42;;;3.97;;
53545;SDS011;39432;51.902;10.844;2023-04-25T05:55:37;13.50;;;3.65;;
53545;SDS011;39432;51.902;10.844;2023-04-25T05:58:36;19.83;;;4.13;;
53545;SDS011;39432;51.902;10.844;2023-04-25T06:01:08;9.88;;;3.40;;
53545;SDS011;39432;51.902;10.844;2023-04-25T06:03:41;12.88;;;3.65;;
53545;SDS011;39432;51.902;10.844;2023-04-25T06:06:11;11.90;;;3.65;;
53545;SDS011;39432;51.902;10.844;2023-04-25T06:08:41;13.00;;;4.40;;
53545;SDS011;39432;51.902;10.844;2023-04-25T06:11:11;14.88;;;4.07;;
53545;SDS011;39432;51.902;10.844;2023-04-25T06:13:41;14.38;;;4.05;;
53545;SDS011;39432;51.902;10.844;2023-04-25T06:16:11;16.08;;;4.30;;
53545;SDS011;39432;51.902;10.844;2023-04-25T06:18:43;20.27;;;3.95;;
53545;SDS011;39432;51.902;10.844;2023-04-25T06:21:14;13.77;;;3.58;;
53545;SDS011;39432;51.902;10.844;2023-04-25T06:23:44;10.02;;;3.28;;
53545;SDS011;39432;51.902;10.844;2023-04-25T06:26:19;12.90;;;2.90;;
53545;SDS011;39432;51.902;10.844;2023-04-25T06:28:49;15.68;;;3.33;;
53545;SDS011;39432;51.902;10.844;2023-04-25T06:31:19;16.85;;;3.78;;
53545;SDS011;39432;51.902;10.844;2023-04-25T06:33:52;13.18;;;3.20;;
53545;SDS011;39432;51.902;10.844;2023-04-25T06:36:25;16.35;;;3.60;;
53545;SDS011;39432;51.902;10.844;2023-04-25T06:39:01;18.23;;;3.50;;
53545;SDS011;39432;51.902;10.844;2023-04-25T06:41:32;15.98;;;3.70;;
53545;SDS011;39432;51.902;10.844;2023-04-25T06:44:05;15.07;;;3.58;;
53545;SDS011;39432;51.902;10.844;2023-04-25T06:46:39;17.98;;;3.33;;
53545;SDS011;39432;51.902;10.844;2023-04-25T06:49:15;8.98;;;2.80;;
53545;SDS011;39432;51.902;10.844;2023-04-25T06:51:44;11.98;;;2.75;;
53545;SDS011;39432;51.902;10.844;2023-04-25T06:54:14;14.52;;;3.92;;
53545;SDS011;39432;51.902;10.844;2023-04-25T06:56:54;17.55;;;3.60;;
53545;SDS011;39432;51.902;10.844;2023-04-25T06:59:26;18.17;;;4.22;;
53545;SDS011;39432;51.902;10.844;2023-04-25T07:01:56;14.45;;;3.22;;
53545;SDS011;39432;51.902;10.844;2023-04-25T07:04:28;15.60;;;2.83;;
53545;SDS011;39432;51.902;10.844;2023-04-25T07:06:58;11.57;;;3.08;;
53545;SDS011;39432;51.902;10.844;2023-04-25T07:09:38;20.67;;;3.15;;
53545;SDS011;39432;51.902;10.844;2023-04-25T07:12:08;12.02;;;3.17;;
53545;SDS011;39432;51.902;10.844;2023-04-25T07:14:38;11.55;;;3.17;;
53545;SDS011;39432;51.902;10.844;2023-04-25T07:17:08;17.63;;;2.42;;
53545;SDS011;39432;51.902;10.844;2023-04-25T07:19:41;11.48;;;2.92;;
53545;SDS011;39432;51.902;10.844;2023-04-25T07:22:11;11.70;;;2.72;;
53545;SDS011;39432;51.902;10.844;2023-04-25T07:24:41;14.07;;;3.30;;
53545;SDS011;39432;51.902;10.844;2023-04-25T07:27:17;15.80;;;3.50;;
53545;SDS011;39432;51.902;10.844;2023-04-25T07:30:13;12.23;;;3.42;;
53545;SDS011;39432;51.902;10.844;2023-04-25T07:32:43;14.25;;;3.08;;
53545;SDS011;39432;51.902;10.844;2023-04-25T07:35:16;18.85;;;3.28;;
53545;SDS011;39432;51.902;10.844;2023-04-25T07:37:47;17.13;;;3.20;;
53545;SDS011;39432;51.902;10.844;2023-04-25T07:40:19;15.70;;;2.78;;
53545;SDS011;39432;51.902;10.844;2023-04-25T07:42:54;13.85;;;2.70;;
53545;SDS011;39432;51.902;10.844;2023-04-25T07:45:31;16.15;;;3.20;;
53545;SDS011;39432;51.902;10.844;2023-04-25T07:48:02;15.32;;;3.58;;
53545;SDS011;39432;51.902;10.844;2023-04-25T07:50:38;17.20;;;3.53;;
53545;SDS011;39432;51.902;10.844;2023-04-25T07:53:08;14.88;;;2.88;;
53545;SDS011;39432;51.902;10.844;2023-04-25T07:55:45;17.10;;;3.13;;
53545;SDS011;39432;51.902;10.844;2023-04-25T07:58:16;10.52;;;2.20;;
53545;SDS011;39432;51.902;10.844;2023-04-25T08:00:52;11.73;;;2.60;;
53545;SDS011;39432;51.902;10.844;2023-04-25T08:03:39;11.68;;;2.28;;
53545;SDS011;39432;51.902;10.844;2023-04-25T08:06:18;13.25;;;2.53;;
53545;SDS011;39432;51.902;10.844;2023-04-25T08:09:05;16.58;;;2.97;;
53545;SDS011;39432;51.902;10.844;2023-04-25T08:11:38;12.90;;;2.97;;
53545;SDS011;39432;51.902;10.844;2023-04-25T08:14:10;10.15;;;2.72;;
53545;SDS011;39432;51.902;10.844;2023-04-25T08:16:42;14.68;;;2.85;;
53545;SDS011;39432;51.902;10.844;2023-04-25T08:19:12;9.13;;;2.53;;
53545;SDS011;39432;51.902;10.844;2023-04-25T08:21:46;10.88;;;2.30;;
53545;SDS011;39432;51.902;10.844;2023-04-25T08:24:25;13.20;;;2.30;;
53545;SDS011;39432;51.902;10.844;2023-04-25T08:26:55;11.13;;;2.15;;
53545;SDS011;39432;51.902;10.844;2023-04-25T08:29:27;12.85;;;2.45;;
53545;SDS011;39432;51.902;10.844;2023-04-25T08:31:57;14.48;;;2.38;;
53545;SDS011;39432;51.902;10.844;2023-04-25T08:34:27;15.50;;;2.92;;
53545;SDS011;39432;51.902;10.844;2023-04-25T08:37:04;11.82;;;2.55;;
53545;SDS011;39432;51.902;10.844;2023-04-25T08:39:39;12.40;;;2.58;;
53545;SDS011;39432;51.902;10.844;2023-04-25T08:42:28;9.88;;;1.85;;
53545;SDS011;39432;51.902;10.844;2023-04-25T08:45:02;13.38;;;2.72;;
53545;SDS011;39432;51.902;10.844;2023-04-25T08:47:37;13.77;;;3.10;;
53545;SDS011;39432;51.902;10.844;2023-04-25T08:50:08;9.52;;;2.28;;
53545;SDS011;39432;51.902;10.844;2023-04-25T08:52:43;6.85;;;1.80;;
53545;SDS011;39432;51.902;10.844;2023-04-25T08:55:14;18.77;;;3.40;;
53545;SDS011;39432;51.902;10.844;2023-04-25T08:57:45;14.68;;;2.83;;
53545;SDS011;39432;51.902;10.844;2023-04-25T09:00:16;16.65;;;2.72;;
53545;SDS011;39432;51.902;10.844;2023-04-25T09:02:47;10.77;;;2.28;;
53545;SDS011;39432;51.902;10.844;2023-04-25T09:05:17;12.50;;;2.53;;
53545;SDS011;39432;51.902;10.844;2023-04-25T09:07:54;13.02;;;1.95;;
53545;SDS011;39432;51.902;10.844;2023-04-25T09:10:25;7.88;;;1.95;;
53545;SDS011;39432;51.902;10.844;2023-04-25T09:13:04;14.80;;;2.22;;
53545;SDS011;39432;51.902;10.844;2023-04-25T09:15:58;7.57;;;1.90;;
53545;SDS011;39432;51.902;10.844;2023-04-25T09:18:39;8.95;;;2.20;;
53545;SDS011;39432;51.902;10.844;2023-04-25T09:21:14;7.38;;;2.33;;
53545;SDS011;39432;51.902;10.844;2023-04-25T09:23:49;13.05;;;2.03;;
53545;SDS011;39432;51.902;10.844;2023-04-25T09:26:20;11.10;;;2.03;;
53545;SDS011;39432;51.902;10.844;2023-04-25T09:28:50;7.28;;;1.42;;
53545;SDS011;39432;51.902;10.844;2023-04-25T09:31:39;8.85;;;2.85;;
53545;SDS011;39432;51.902;10.844;2023-04-25T09:34:10;10.70;;;2.20;;
53545;SDS011;39432;51.902;10.844;2023-04-25T09:36:47;10.25;;;1.70;;
53545;SDS011;39432;51.902;10.844;2023-04-25T09:39:41;6.70;;;1.70;;
53545;SDS011;39432;51.902;10.844;2023-04-25T09:42:15;7.55;;;1.67;;
53545;SDS011;39432;51.902;10.844;2023-04-25T09:44:46;12.13;;;1.90;;
53545;SDS011;39432;51.902;10.844;2023-04-25T09:47:16;6.00;;;1.58;;
53545;SDS011;39432;51.902;10.844;2023-04-25T09:49:48;7.05;;;1.67;;
53545;SDS011;39432;51.902;10.844;2023-04-25T09:52:20;10.20;;;1.85;;
53545;SDS011;39432;51.902;10.844;2023-04-25T09:55:02;6.40;;;1.80;;
53545;SDS011;39432;51.902;10.844;2023-04-25T09:57:33;6.00;;;1.65;;
53545;SDS011;39432;51.902;10.844;2023-04-25T10:00:07;7.13;;;1.50;;
53545;SDS011;39432;51.902;10.844;2023-04-25T10:02:42;5.38;;;1.77;;
53545;SDS011;39432;51.902;10.844;2023-04-25T10:05:41;7.43;;;1.90;;
53545;SDS011;39432;51.902;10.844;2023-04-25T10:08:12;8.27;;;2.20;;
53545;SDS011;39432;51.902;10.844;2023-04-25T10:10:45;10.27;;;1.75;;
53545;SDS011;39432;51.902;10.844;2023-04-25T10:13:18;4.30;;;1.30;;
53545;SDS011;39432;51.902;10.844;2023-04-25T10:15:48;4.07;;;1.30;;
53545;SDS011;39432;51.902;10.844;2023-04-25T10:18:18;7.68;;;1.60;;
53545;SDS011;39432;51.902;10.844;2023-04-25T10:20:49;8.35;;;1.50;;
53545;SDS011;39432;51.902;10.844;2023-04-25T10:23:19;11.60;;;1.85;;
53545;SDS011;39432;51.902;10.844;2023-04-25T10:25:52;8.13;;;1.42;;
53545;SDS011;39432;51.902;10.844;2023-04-25T10:28:23;7.30;;;1.50;;
53545;SDS011;39432;51.902;10.844;2023-04-25T10:30:58;6.00;;;1.65;;
53545;SDS011;39432;51.902;10.844;2023-04-25T10:33:30;2.40;;;0.93;;
53545;SDS011;39432;51.902;10.844;2023-04-25T10:36:10;4.97;;;1.33;;
53545;SDS011;39432;51.902;10.844;2023-04-25T10:38:41;3.35;;;1.40;;
53545;SDS011;39432;51.902;10.844;2023-04-25T10:41:14;4.38;;;1.17;;
53545;SDS011;39432;51.902;10.844;2023-04-25T10:43:48;4.07;;;1.20;;
53545;SDS011;39432;51.902;10.844;2023-04-25T10:46:19;6.57;;;1.27;;
53545;SDS011;39432;51.902;10.844;2023-04-25T10:48:52;2.90;;;0.82;;
53545;SDS011;39432;51.902;10.844;2023-04-25T10:51:23;3.40;;;1.40;;
53545;SDS011;39432;51.902;10.844;2023-04-25T10:54:03;6.43;;;1.17;;
53545;SDS011;39432;51.902;10.844;2023-04-25T10:56:37;7.93;;;1.40;;
53545;SDS011;39432;51.902;10.844;2023-04-25T10:59:11;6.20;;;1.40;;
53545;SDS011;39432;51.902;10.844;2023-04-25T11:01:44;3.47;;;1.13;;
53545;SDS011;39432;51.902;10.844;2023-04-25T11:04:22;5.32;;;1.35;;
53545;SDS011;39432;51.902;10.844;2023-04-25T11:07:03;6.10;;;1.33;;
53545;SDS011;39432;51.902;10.844;2023-04-25T11:09:38;4.78;;;1.30;;
53545;SDS011;39432;51.902;10.844;2023-04-25T11:12:11;5.18;;;1.67;;
53545;SDS011;39432;51.902;10.844;2023-04-25T11:14:41;8.70;;;1.60;;
53545;SDS011;39432;51.902;10.844;2023-04-25T11:17:11;6.22;;;1.45;;
53545;SDS011;39432;51.902;10.844;2023-04-25T11:19:41;11.85;;;1.80;;
53545;SDS011;39432;51.902;10.844;2023-04-25T11:22:11;8.30;;;1.63;;
53545;SDS011;39432;51.902;10.844;2023-04-25T11:24:41;7.47;;;1.63;;
53545;SDS011;39432;51.902;10.844;2023-04-25T11:27:14;12.80;;;1.80;;
53545;SDS011;39432;51.902;10.844;2023-04-25T11:29:44;10.27;;;1.50;;
53545;SDS011;39432;51.902;10.844;2023-04-25T11:32:14;6.03;;;1.63;;
53545;SDS011;39432;51.902;10.844;2023-04-25T11:34:47;9.05;;;1.65;;
53545;SDS011;39432;51.902;10.844;2023-04-25T11:37:16;5.20;;;1.55;;
53545;SDS011;39432;51.902;10.844;2023-04-25T11:39:47;9.50;;;1.40;;
53545;SDS011;39432;51.902;10.844;2023-04-25T11:42:20;9.43;;;1.60;;
53545;SDS011;39432;51.902;10.844;2023-04-25T11:44:50;5.40;;;1.60;;
53545;SDS011;39432;51.902;10.844;2023-04-25T11:47:21;6.00;;;1.65;;
53545;SDS011;39432;51.902;10.844;2023-04-25T11:49:58;5.50;;;1.40;;
53545;SDS011;39432;51.902;10.844;2023-04-25T11:52:35;4.57;;;1.50;;
53545;SDS011;39432;51.902;10.844;2023-04-25T11:55:09;4.47;;;1.42;;
53545;SDS011;39432;51.902;10.844;2023-04-25T11:57:45;5.72;;;1.35;;
53545;SDS011;39432;51.902;10.844;2023-04-25T12:00:21;5.47;;;1.40;;
53545;SDS011;39432;51.902;10.844;2023-04-25T12:02:52;7.57;;;1.50;;
53545;SDS011;39432;51.902;10.844;2023-04-25T12:05:25;11.43;;;1.83;;
53545;SDS011;39432;51.902;10.844;2023-04-25T12:08:11;7.32;;;1.65;;
53545;SDS011;39432;51.902;10.844;2023-04-25T12:10:42;5.75;;;1.50;;
53545;SDS011;39432;51.902;10.844;2023-04-25T12:13:20;4.65;;;1.48;;
53545;SDS011;39432;51.902;10.844;2023-04-25T12:15:51;7.85;;;1.40;;
53545;SDS011;39432;51.902;10.844;2023-04-25T12:18:23;10.35;;;1.50;;
53545;SDS011;39432;51.902;10.844;2023-04-25T12:20:54;4.15;;;1.13;;
53545;SDS011;39432;51.902;10.844;2023-04-25T12:23:25;5.57;;;1.52;;
53545;SDS011;39432;51.902;10.844;2023-04-25T12:25:57;5.10;;;0.90;;
53545;SDS011;39432;51.902;10.844;2023-04-25T12:28:32;3.80;;;1.23;;
53545;SDS011;39432;51.902;10.844;2023-04-25T12:31:02;5.30;;;1.30;;
53545;SDS011;39432;51.902;10.844;2023-04-25T12:33:33;5.28;;;1.38;;
53545;SDS011;39432;51.902;10.844;2023-04-25T12:36:06;7.30;;;1.70;;
53545;SDS011;39432;51.902;10.844;2023-04-25T12:38:40;7.45;;;1.48;;
53545;SDS011;39432;51.902;10.844;2023-04-25T12:41:10;8.02;;;1.75;;
53545;SDS011;39432;51.902;10.844;2023-04-25T12:43:42;4.13;;;1.38;;
53545;SDS011;39432;51.902;10.844;2023-04-25T12:46:12;7.43;;;1.60;;
53545;SDS011;39432;51.902;10.844;2023-04-25T12:48:42;7.28;;;1.60;;
53545;SDS011;39432;51.902;10.844;2023-04-25T12:51:12;7.55;;;1.40;;
53545;SDS011;39432;51.902;10.844;2023-04-25T12:53:42;6.68;;;1.75;;
53545;SDS011;39432;51.902;10.844;2023-04-25T12:56:12;5.07;;;1.52;;
53545;SDS011;39432;51.902;10.844;2023-04-25T12:58:44;4.47;;;1.60;;
53545;SDS011;39432;51.902;10.844;2023-04-25T13:01:15;5.97;;;1.70;;
53545;SDS011;39432;51.902;10.844;2023-04-25T13:03:45;9.52;;;1.70;;
53545;SDS011;39432;51.902;10.844;2023-04-25T13:06:16;6.55;;;2.10;;
53545;SDS011;39432;51.902;10.844;2023-04-25T13:08:46;7.75;;;2.08;;
53545;SDS011;39432;51.902;10.844;2023-04-25T13:11:16;9.00;;;2.08;;
53545;SDS011;39432;51.902;10.844;2023-04-25T13:13:49;7.88;;;1.67;;
53545;SDS011;39432;51.902;10.844;2023-04-25T13:16:20;8.13;;;1.63;;
53545;SDS011;39432;51.902;10.844;2023-04-25T13:18:49;6.47;;;1.50;;
53545;SDS011;39432;51.902;10.844;2023-04-25T13:21:19;18.02;;;2.42;;
53545;SDS011;39432;51.902;10.844;2023-04-25T13:23:49;9.52;;;1.75;;
53545;SDS011;39432;51.902;10.844;2023-04-25T13:26:19;9.82;;;1.80;;
53545;SDS011;39432;51.902;10.844;2023-04-25T13:28:52;7.97;;;1.88;;
53545;SDS011;39432;51.902;10.844;2023-04-25T13:31:22;8.65;;;1.90;;
53545;SDS011;39432;51.902;10.844;2023-04-25T13:33:52;9.57;;;1.88;;
53545;SDS011;39432;51.902;10.844;2023-04-25T13:36:22;8.95;;;1.65;;
53545;SDS011;39432;51.902;10.844;2023-04-25T13:38:52;6.28;;;1.90;;
53545;SDS011;39432;51.902;10.844;2023-04-25T13:41:22;6.47;;;1.90;;
53545;SDS011;39432;51.902;10.844;2023-04-25T13:43:54;7.70;;;2.22;;
53545;SDS011;39432;51.902;10.844;2023-04-25T13:46:24;8.80;;;1.25;;
53545;SDS011;39432;51.902;10.844;2023-04-25T13:49:11;8.95;;;1.75;;
53545;SDS011;39432;51.902;10.844;2023-04-25T13:51:41;7.25;;;1.60;;
53545;SDS011;39432;51.902;10.844;2023-04-25T13:54:11;10.95;;;2.08;;
53545;SDS011;39432;51.902;10.844;2023-04-25T13:56:41;4.55;;;1.50;;
53545;SDS011;39432;51.902;10.844;2023-04-25T13:59:13;7.40;;;1.52;;
53545;SDS011;39432;51.902;10.844;2023-04-25T14:01:43;8.68;;;1.77;;
53545;SDS011;39432;51.902;10.844;2023-04-25T14:04:13;6.03;;;1.77;;
53545;SDS011;39432;51.902;10.844;2023-04-25T14:06:43;5.25;;;1.13;;
53545;SDS011;39432;51.902;10.844;2023-04-25T14:09:13;3.67;;;1.20;;
53545;SDS011;39432;51.902;10.844;2023-04-25T14:11:42;10.77;;;1.40;;
53545;SDS011;39432;51.902;10.844;2023-04-25T14:14:15;5.47;;;1.02;;
53545;SDS011;39432;51.902;10.844;2023-04-25T14:16:44;2.92;;;0.90;;
53545;SDS011;39432;51.902;10.844;2023-04-25T14:19:14;10.00;;;1.55;;
53545;SDS011;39432;51.902;10.844;2023-04-25T14:21:47;4.53;;;1.20;;
53545;SDS011;39432;51.902;10.844;2023-04-25T14:24:17;3.88;;;0.82;;
53545;SDS011;39432;51.902;10.844;2023-04-25T14:26:47;3.25;;;0.98;;
53545;SDS011;39432;51.902;10.844;2023-04-25T14:29:19;5.85;;;1.10;;
53545;SDS011;39432;51.902;10.844;2023-04-25T14:31:49;4.25;;;1.15;;
53545;SDS011;39432;51.902;10.844;2023-04-25T14:34:20;3.42;;;0.93;;
53545;SDS011;39432;51.902;10.844;2023-04-25T14:36:50;6.40;;;1.05;;
53545;SDS011;39432;51.902;10.844;2023-04-25T14:39:20;5.47;;;1.17;;
53545;SDS011;39432;51.902;10.844;2023-04-25T14:41:50;3.05;;;1.10;;
53545;SDS011;39432;51.902;10.844;2023-04-25T14:44:22;4.80;;;1.10;;
53545;SDS011;39432;51.902;10.844;2023-04-25T14:46:52;4.18;;;0.90;;
53545;SDS011;39432;51.902;10.844;2023-04-25T14:49:22;6.20;;;0.93;;
53545;SDS011;39432;51.902;10.844;2023-04-25T14:51:51;4.47;;;1.00;;
53545;SDS011;39432;51.902;10.844;2023-04-25T14:54:21;3.05;;;1.00;;
53545;SDS011;39432;51.902;10.844;2023-04-25T14:56:52;3.35;;;0.90;;
53545;SDS011;39432;51.902;10.844;2023-04-25T14:59:24;4.63;;;1.10;;
53545;SDS011;39432;51.902;10.844;2023-04-25T15:01:55;3.88;;;1.40;;
53545;SDS011;39432;51.902;10.844;2023-04-25T15:04:25;2.67;;;1.20;;
53545;SDS011;39432;51.902;10.844;2023-04-25T15:06:56;3.72;;;1.00;;
53545;SDS011;39432;51.902;10.844;2023-04-25T15:09:25;3.33;;;1.10;;